Time;durP1;ratioP1;P1;durP2;ratioP2;P2;SDS_P1;SDS_P2;PMS_P1;PMS_P2;Temp;Humidity;BMP_temperature;BMP_pressure;BME280_temperature;BME280_humidity;BME280_pressure;Samples;Min_cycle;Max_cycle;Signal;HPM_P1;HPM_P2
2023/01/19 00:01:17;;;;;;;17.10;7.03;;;-3275.50;81.10;;;;;;5028892;28;20045;-71
2023/01/19 00:03:45;;;;;;;18.88;7.03;;;-3275.50;81.10;;;;;;5029341;28;20056;-70
2023/01/19 00:06:12;;;;;;;20.67;8.15;;;-3275.50;80.90;;;;;;5030875;28;20049;-59
2023/01/19 00:08:39;;;;;;;16.27;7.25;;;-3275.40;80.90;;;;;;5033104;28;20680;-59
2023/01/19 00:11:08;;;;;;;22.95;7.50;;;-3275.50;80.90;;;;;;5033459;28;20045;-64
2023/01/19 00:13:35;;;;;;;17.67;7.90;;;-3275.50;80.80;;;;;;5026561;28;20049;-66
2023/01/19 00:16:02;;;;;;;20.33;8.88;;;-3275.40;80.80;;;;;;5031816;28;20048;-63
2023/01/19 00:18:28;;;;;;;17.83;7.63;;;-3275.40;80.80;;;;;;5034470;28;20063;-61
2023/01/19 00:20:57;;;;;;;16.27;7.22;;;-3275.40;80.80;;;;;;5031618;28;20050;-64
2023/01/19 00:23:25;;;;;;;15.48;6.43;;;-3275.40;80.80;;;;;;5026938;28;20101;-66
2023/01/19 00:25:52;;;;;;;13.15;6.18;;;-3275.30;81.00;;;;;;5031416;28;20129;-66
2023/01/19 00:28:19;;;;;;;14.32;6.93;;;-3275.30;80.90;;;;;;5030144;28;20491;-65
2023/01/19 00:30:46;;;;;;;14.02;6.97;;;-3275.30;80.90;;;;;;5030106;28;20550;-64
2023/01/19 00:33:14;;;;;;;16.33;7.25;;;-3275.30;81.00;;;;;;5033634;28;20090;-65
2023/01/19 00:35:42;;;;;;;16.60;6.35;;;-3275.30;80.80;;;;;;5028537;28;20041;-65
2023/01/19 00:38:11;;;;;;;14.73;6.55;;;-3275.30;80.90;;;;;;5030945;28;20483;-65
2023/01/19 00:40:38;;;;;;;17.58;7.13;;;-3275.30;81.00;;;;;;5033076;28;20049;-58
2023/01/19 00:43:05;;;;;;;16.38;7.05;;;-3275.20;81.10;;;;;;5029847;28;20110;-59
2023/01/19 00:45:33;;;;;;;16.45;7.00;;;-3275.30;81.20;;;;;;5034747;28;20069;-59
2023/01/19 00:48:00;;;;;;;18.30;6.65;;;-3275.30;80.90;;;;;;5037102;28;20053;-59
2023/01/19 00:50:29;;;;;;;14.85;6.65;;;-3275.30;80.90;;;;;;5035493;28;20507;-62
2023/01/19 00:52:59;;;;;;;13.18;6.40;;;-3275.30;80.90;;;;;;5035141;28;20076;-61
2023/01/19 00:55:28;;;;;;;14.88;7.30;;;-3275.30;81.00;;;;;;5031721;28;20077;-67
2023/01/19 00:57:55;;;;;;;15.50;6.80;;;-3275.30;80.90;;;;;;5031005;28;20052;-66
2023/01/19 01:00:23;;;;;;;14.63;7.13;;;-3275.30;80.80;;;;;;5029871;28;20057;-62
2023/01/19 01:02:52;;;;;;;11.98;6.57;;;-3275.20;80.90;;;;;;5034150;28;20038;-62
2023/01/19 01:05:21;;;;;;;14.88;6.50;;;-3275.10;81.20;;;;;;5033846;28;20049;-62
2023/01/19 01:07:48;;;;;;;14.43;6.65;;;-3275.10;81.20;;;;;;5031606;28;20052;-62
2023/01/19 01:10:17;;;;;;;14.10;6.88;;;-3275.10;81.20;;;;;;5035082;28;20403;-61
2023/01/19 01:12:46;;;;;;;14.77;6.60;;;-3275.10;81.00;;;;;;5033872;28;20074;-61
2023/01/19 01:15:14;;;;;;;14.90;7.55;;;-3275.10;81.00;;;;;;5032861;28;20139;-63
2023/01/19 01:17:46;;;;;;;13.70;7.38;;;-3275.20;80.90;;;;;;5037133;28;20045;-61
2023/01/19 01:20:16;;;;;;;12.38;6.40;;;-3275.10;81.10;;;;;;5034131;28;20046;-62
2023/01/19 01:22:45;;;;;;;14.15;6.95;;;-3275.10;81.20;;;;;;5026597;28;20088;-62
2023/01/19 01:25:12;;;;;;;14.73;6.78;;;-3275.10;80.90;;;;;;5035075;28;20049;-62
2023/01/19 01:27:39;;;;;;;17.80;7.38;;;-3275.10;80.80;;;;;;5028301;28;20112;-62
2023/01/19 01:30:10;;;;;;;17.10;7.43;;;-3275.10;81.10;;;;;;5019553;28;20081;-62
2023/01/19 01:32:37;;;;;;;12.90;6.32;;;-3275.00;81.10;;;;;;5034251;28;20068;-62
2023/01/19 01:35:05;;;;;;;14.88;6.53;;;-3275.10;80.90;;;;;;5030038;28;20053;-62
2023/01/19 01:37:32;;;;;;;16.27;6.88;;;-3275.10;80.80;;;;;;5027657;28;20057;-70
2023/01/19 01:39:59;;;;;;;11.60;6.13;;;-3275.10;80.70;;;;;;5033062;28;20119;-71
2023/01/19 01:42:28;;;;;;;12.63;6.95;;;-3275.10;80.80;;;;;;5031923;28;20042;-71
2023/01/19 01:44:56;;;;;;;14.15;6.82;;;-3275.00;80.90;;;;;;5029130;28;20044;-71
2023/01/19 01:47:30;;;;;;;11.40;6.30;;;-3275.00;81.00;;;;;;5033577;28;20045;-70
2023/01/19 01:50:03;;;;;;;11.40;6.60;;;-3275.10;81.00;;;;;;5032744;28;20045;-72
2023/01/19 01:52:34;;;;;;;17.13;6.60;;;-3275.00;80.80;;;;;;5033258;28;20057;-66
2023/01/19 01:55:05;;;;;;;12.40;6.15;;;-3275.10;80.80;;;;;;5034358;28;20048;-66
2023/01/19 01:57:34;;;;;;;13.00;6.63;;;-3275.10;80.70;;;;;;5036623;28;20070;-61
2023/01/19 02:00:02;;;;;;;18.02;7.03;;;-3275.00;80.80;;;;;;5026335;28;21728;-61
2023/01/19 02:02:53;;;;;;;14.38;6.75;;;-3275.00;80.70;;;;;;5041460;28;20061;-72
2023/01/19 02:05:24;;;;;;;15.75;6.72;;;-3275.00;80.70;;;;;;5033659;28;20396;-61
2023/01/19 02:13:28;;;;;;;14.93;6.70;;;-3275.00;80.70;;;;;;5034892;28;20064;-62
2023/01/19 02:15:57;;;;;;;14.65;6.35;;;-3274.90;80.70;;;;;;5033957;28;20045;-62
2023/01/19 02:18:28;;;;;;;17.08;6.32;;;-3274.90;80.60;;;;;;5033505;28;20044;-61
2023/01/19 02:21:03;;;;;;;15.18;7.40;;;-3275.00;80.60;;;;;;5030492;28;21474;-65
2023/01/19 02:23:44;;;;;;;16.77;7.35;;;-3275.00;80.60;;;;;;5031594;28;20602;-65
2023/01/19 02:26:15;;;;;;;13.10;5.85;;;-3274.90;80.60;;;;;;5031520;28;20052;-65
2023/01/19 02:28:45;;;;;;;15.52;6.82;;;-3274.90;80.50;;;;;;5033317;28;20488;-64
2023/01/19 02:31:13;;;;;;;12.25;5.60;;;-3274.90;80.60;;;;;;5033469;28;20127;-60
2023/01/19 02:33:41;;;;;;;12.45;6.25;;;-3274.90;80.50;;;;;;5032316;28;20053;-61
2023/01/19 02:36:11;;;;;;;14.02;5.93;;;-3274.90;80.60;;;;;;5032427;28;20055;-61
2023/01/19 02:38:39;;;;;;;12.15;6.20;;;-3274.80;80.50;;;;;;5032160;28;20056;-61
2023/01/19 02:41:09;;;;;;;10.68;5.70;;;-3274.90;80.60;;;;;;5034772;28;20072;-61
2023/01/19 02:43:37;;;;;;;14.07;6.35;;;-3274.90;80.50;;;;;;5036018;28;20051;-62
2023/01/19 02:46:04;;;;;;;14.65;6.07;;;-3274.90;80.60;;;;;;5036703;28;20036;-61
2023/01/19 02:48:31;;;;;;;13.15;6.55;;;-3274.80;80.80;;;;;;5031761;28;20048;-61
2023/01/19 02:51:03;;;;;;;14.43;7.20;;;-3274.80;80.90;;;;;;5029634;28;20052;-65
2023/01/19 02:54:03;;;;;;;13.70;6.47;;;-3274.80;81.30;;;;;;5032031;28;20073;-64
2023/01/19 02:56:39;;;;;;;;;;;-3274.80;81.60;;;;;;5033453;28;20064;-64
2023/01/19 02:59:14;;;;;;;14.60;6.50;;;-3274.90;81.70;;;;;;5033633;28;19928;-65
2023/01/19 03:01:58;;;;;;;15.43;7.15;;;-3274.90;81.90;;;;;;5030795;28;20053;-61
2023/01/19 03:04:31;;;;;;;15.27;6.55;;;-3274.90;82.00;;;;;;5030411;28;20603;-61
2023/01/19 03:07:07;;;;;;;13.32;6.43;;;-3274.90;82.00;;;;;;5029628;28;20040;-60
2023/01/19 03:09:42;;;;;;;13.13;6.63;;;-3274.90;82.30;;;;;;5034420;28;20124;-61
2023/01/19 03:12:18;;;;;;;16.05;6.28;;;-3275.00;82.30;;;;;;5029655;28;20057;-60
2023/01/19 03:14:48;;;;;;;12.80;6.65;;;-3275.00;82.20;;;;;;5032635;28;20045;-61
2023/01/19 03:17:18;;;;;;;13.90;6.70;;;-3275.00;82.50;;;;;;5029611;28;20053;-61
2023/01/19 03:19:48;;;;;;;14.27;7.05;;;-3275.10;82.40;;;;;;5030761;28;20468;-61
2023/01/19 03:22:22;;;;;;;17.88;6.65;;;-3275.10;82.50;;;;;;5033602;28;20053;-62
2023/01/19 03:24:53;;;;;;;14.05;7.05;;;-3275.10;82.60;;;;;;5031857;28;20068;-61
2023/01/19 03:27:26;;;;;;;18.05;6.80;;;-3275.10;82.70;;;;;;5028823;28;20141;-61
2023/01/19 03:29:57;;;;;;;16.65;6.68;;;-3275.20;82.80;;;;;;5032173;28;20084;-61
2023/01/19 03:32:29;;;;;;;13.50;6.47;;;-3275.20;82.60;;;;;;5031702;28;20053;-62
2023/01/19 03:34:58;;;;;;;13.95;6.28;;;-3275.10;83.00;;;;;;5027611;28;20049;-62
2023/01/19 03:37:27;;;;;;;14.68;6.97;;;-3275.10;83.20;;;;;;5035822;28;20053;-62
2023/01/19 03:39:55;;;;;;;11.20;6.25;;;-3275.10;83.40;;;;;;5029598;28;20053;-62
2023/01/19 03:42:24;;;;;;;11.88;5.75;;;-3275.10;83.50;;;;;;5040189;28;20049;-62
2023/01/19 03:44:54;;;;;;;13.70;5.80;;;-3275.20;83.60;;;;;;5027648;28;20164;-61
2023/01/19 03:47:22;;;;;;;13.57;6.35;;;-3275.20;83.50;;;;;;5030876;28;20056;-61
2023/01/19 03:49:52;;;;;;;14.00;6.22;;;-3275.20;83.70;;;;;;5033347;28;20399;-62
2023/01/19 03:52:27;;;;;;;10.55;5.30;;;-3275.30;83.60;;;;;;5036665;28;20045;-61
2023/01/19 03:54:54;;;;;;;12.80;5.88;;;-3275.30;83.60;;;;;;5030470;28;20049;-61
2023/01/19 03:57:20;;;;;;;13.35;6.30;;;-3275.30;83.60;;;;;;5031584;28;20056;-62
2023/01/19 03:59:49;;;;;;;13.77;6.55;;;-3275.40;83.60;;;;;;5034382;28;20487;-62
2023/01/19 04:02:16;;;;;;;15.02;6.10;;;-3275.40;83.60;;;;;;5022436;28;20062;-60
2023/01/19 04:04:43;;;;;;;10.07;5.70;;;-3275.40;83.60;;;;;;5030168;28;20056;-61
2023/01/19 04:07:10;;;;;;;11.50;5.53;;;-3275.40;83.70;;;;;;5031583;28;20132;-60
2023/01/19 04:09:37;;;;;;;11.77;5.32;;;-3275.40;83.60;;;;;;5032658;28;22062;-61
2023/01/19 04:12:04;;;;;;;12.57;5.63;;;-3275.40;83.60;;;;;;5029021;28;20041;-61
2023/01/19 04:14:31;;;;;;;12.23;5.80;;;-3275.40;83.60;;;;;;5034656;28;20132;-60
2023/01/19 04:16:59;;;;;;;9.98;4.82;;;-3275.50;83.50;;;;;;5033132;28;20056;-60
2023/01/19 04:19:26;;;;;;;10.85;5.45;;;-3275.50;83.50;;;;;;5030594;28;20037;-61
2023/01/19 04:21:54;;;;;;;10.18;4.50;;;-3275.40;83.60;;;;;;5031125;28;20040;-60
2023/01/19 04:24:21;;;;;;;12.35;4.93;;;-3275.40;83.60;;;;;;5032766;28;23020;-62
2023/01/19 04:26:50;;;;;;;11.30;5.10;;;-3275.40;83.60;;;;;;5031564;28;20558;-62
2023/01/19 04:29:17;;;;;;;10.30;5.60;;;-3275.40;83.60;;;;;;5034719;28;20049;-61
2023/01/19 04:31:44;;;;;;;10.95;5.28;;;-3275.50;83.50;;;;;;5024563;28;20049;-61
2023/01/19 04:34:12;;;;;;;12.25;5.20;;;-3275.50;83.50;;;;;;5043219;28;20075;-62
2023/01/19 04:36:39;;;;;;;11.43;5.65;;;-3275.50;83.50;;;;;;5033694;28;21015;-61
2023/01/19 04:39:07;;;;;;;14.02;5.88;;;-3275.50;83.50;;;;;;5029156;28;20064;-61
2023/01/19 04:41:34;;;;;;;9.90;4.95;;;-3275.50;83.60;;;;;;5033562;28;20569;-60
2023/01/19 04:44:02;;;;;;;9.68;5.60;;;-3275.50;83.50;;;;;;5030074;28;20505;-61
2023/01/19 04:46:29;;;;;;;12.90;5.63;;;-3275.50;83.50;;;;;;5027510;28;20046;-61
2023/01/19 04:48:57;;;;;;;12.40;6.03;;;-3275.40;83.60;;;;;;5033565;28;20112;-63
2023/01/19 04:51:27;;;;;;;13.38;6.53;;;-3275.40;83.80;;;;;;5029368;28;20052;-62
2023/01/19 04:53:56;;;;;;;13.77;6.50;;;-3275.50;83.90;;;;;;5034106;28;20120;-61
2023/01/19 04:56:24;;;;;;;11.97;5.50;;;-3275.50;83.90;;;;;;5031354;28;20532;-61
2023/01/19 04:58:51;;;;;;;12.77;6.68;;;-3275.50;84.00;;;;;;5029042;28;20464;-61
2023/01/19 05:01:18;;;;;;;11.50;5.80;;;-3275.60;83.90;;;;;;5031086;28;20056;-61
2023/01/19 05:03:45;;;;;;;13.77;5.57;;;-3275.60;84.00;;;;;;5032468;28;20079;-62
2023/01/19 05:06:12;;;;;;;13.48;5.90;;;-3275.60;84.10;;;;;;5028054;28;20056;-62
2023/01/19 05:08:40;;;;;;;15.52;6.22;;;-3275.60;84.20;;;;;;5032872;28;20046;-60
2023/01/19 05:11:08;;;;;;;11.13;5.83;;;-3275.60;84.10;;;;;;5027964;28;20103;-60
2023/01/19 05:13:35;;;;;;;14.32;6.20;;;-3275.70;84.10;;;;;;5033993;28;20042;-58
2023/01/19 05:16:03;;;;;;;11.18;5.57;;;-3275.70;84.30;;;;;;5033750;28;20133;-61
2023/01/19 05:18:34;;;;;;;10.73;5.68;;;-3275.80;84.50;;;;;;5032543;28;20049;-60
2023/01/19 05:21:02;;;;;;;12.88;5.97;;;-3275.80;84.60;;;;;;5029649;28;20130;-65
2023/01/19 05:23:30;;;;;;;13.63;5.90;;;-3275.90;84.90;;;;;;5032625;28;20053;-59
2023/01/19 05:25:59;;;;;;;12.45;6.15;;;-3276.00;85.00;;;;;;5031267;28;20057;-61
2023/01/19 05:28:26;;;;;;;15.30;6.00;;;-3276.00;84.80;;;;;;5032706;28;20065;-59
2023/01/19 05:30:53;;;;;;;12.05;5.97;;;-3276.00;84.80;;;;;;5034938;28;20061;-60
2023/01/19 05:33:21;;;;;;;14.07;6.65;;;-3276.00;84.90;;;;;;5033248;28;20060;-61
2023/01/19 05:35:49;;;;;;;12.80;6.13;;;-3276.10;85.30;;;;;;5025462;28;20804;-62
2023/01/19 05:38:16;;;;;;;13.70;6.05;;;-3276.10;85.30;;;;;;5035459;28;20533;-61
2023/01/19 05:40:43;;;;;;;10.80;6.15;;;-3276.10;85.50;;;;;;5033625;28;20045;-62
2023/01/19 05:43:11;;;;;;;12.95;6.30;;;-3276.20;85.70;;;;;;5033430;28;20050;-61
2023/01/19 05:45:38;;;;;;;11.38;6.53;;;-3276.20;85.40;;;;;;5034233;28;20045;-60
2023/01/19 05:48:05;;;;;;;10.88;5.93;;;-3276.20;85.60;;;;;;5036463;28;20053;-60
2023/01/19 05:50:33;;;;;;;10.93;6.07;;;-3276.30;85.70;;;;;;5036539;28;20091;-62
2023/01/19 05:53:00;;;;;;;11.30;6.25;;;-3276.40;85.90;;;;;;5038470;28;20058;-62
2023/01/19 05:55:28;;;;;;;12.57;6.80;;;-3276.40;85.80;;;;;;5038898;28;20102;-61
2023/01/19 05:57:55;;;;;;;14.15;6.30;;;-3276.40;85.90;;;;;;5035919;28;20053;-61
2023/01/19 06:00:24;;;;;;;12.93;6.47;;;-3276.40;85.90;;;;;;5036805;28;20059;-61
2023/01/19 06:02:51;;;;;;;10.65;6.30;;;-3276.50;86.10;;;;;;5036670;28;20051;-61
2023/01/19 06:05:18;;;;;;;10.80;6.55;;;-3276.50;86.30;;;;;;5033665;28;20045;-61
2023/01/19 06:07:45;;;;;;;14.77;6.35;;;-3276.50;86.20;;;;;;5036954;28;20056;-61
2023/01/19 06:10:12;;;;;;;14.75;6.53;;;-3276.50;86.60;;;;;;5033179;28;20088;-60
2023/01/19 06:12:39;;;;;;;10.07;5.72;;;-3276.60;87.00;;;;;;5035670;28;21345;-61
2023/01/19 06:15:07;;;;;;;11.45;6.82;;;-3276.60;86.80;;;;;;5037853;28;20077;-61
2023/01/19 06:17:35;;;;;;;11.80;6.32;;;-3276.60;87.10;;;;;;5036614;28;20064;-62
2023/01/19 06:20:04;;;;;;;9.85;6.28;;;-3276.60;87.00;;;;;;5034892;28;20140;-61
2023/01/19 06:22:31;;;;;;;11.07;6.30;;;-3276.70;87.10;;;;;;5037162;28;20114;-60
2023/01/19 06:24:57;;;;;;;11.95;6.57;;;-3276.70;87.00;;;;;;5031164;28;20508;-61
2023/01/19 06:27:24;;;;;;;15.65;6.10;;;-3276.70;87.20;;;;;;5032858;28;20037;-61
2023/01/19 06:29:51;;;;;;;11.77;6.00;;;-3276.70;87.30;;;;;;5034754;28;20901;-61
2023/01/19 06:32:18;;;;;;;11.82;6.78;;;0.00;87.30;;;;;;5027069;28;20049;-60
2023/01/19 06:34:46;;;;;;;12.50;7.28;;;0.00;86.90;;;;;;5034225;28;20067;-61
2023/01/19 06:37:15;;;;;;;13.45;7.15;;;-3276.70;87.20;;;;;;5033937;28;20057;-62
2023/01/19 06:39:44;;;;;;;11.85;6.40;;;0.00;87.10;;;;;;5030647;28;20128;-63
2023/01/19 06:42:10;;;;;;;12.95;6.82;;;0.00;87.40;;;;;;5030144;28;20049;-61
2023/01/19 06:44:37;;;;;;;11.85;7.03;;;0.00;87.50;;;;;;5030447;28;20513;-60
2023/01/19 06:47:04;;;;;;;11.50;6.57;;;0.00;87.40;;;;;;5045080;28;20055;-61
2023/01/19 06:49:32;;;;;;;12.80;6.95;;;0.00;87.60;;;;;;5033959;28;20499;-61
2023/01/19 06:52:00;;;;;;;13.95;7.50;;;0.00;87.60;;;;;;5032237;28;20127;-61
2023/01/19 06:54:27;;;;;;;10.95;6.68;;;0.00;87.80;;;;;;5030899;28;20122;-60
2023/01/19 06:56:54;;;;;;;11.18;7.30;;;0.00;87.70;;;;;;5034661;28;20116;-61
2023/01/19 06:59:21;;;;;;;15.38;6.78;;;0.00;87.50;;;;;;5030023;28;20053;-61
2023/01/19 07:01:48;;;;;;;10.70;6.43;;;0.00;87.50;;;;;;5036863;28;20068;-61
2023/01/19 07:04:15;;;;;;;14.52;6.28;;;0.00;87.40;;;;;;5033307;28;20056;-61
2023/01/19 07:06:42;;;;;;;11.90;6.55;;;0.10;87.50;;;;;;5028104;28;20064;-60
2023/01/19 07:09:12;;;;;;;12.65;6.70;;;0.10;87.50;;;;;;5033028;28;20083;-60
2023/01/19 07:11:39;;;;;;;12.43;6.57;;;0.10;87.40;;;;;;5037417;28;20049;-70
2023/01/19 07:14:07;;;;;;;13.15;6.78;;;0.20;87.30;;;;;;5036901;28;20053;-71
2023/01/19 07:16:34;;;;;;;11.80;6.53;;;0.20;87.20;;;;;;5032949;28;20056;-60
2023/01/19 07:19:00;;;;;;;12.77;6.32;;;0.20;87.40;;;;;;5029626;28;20037;-61
2023/01/19 07:21:28;;;;;;;12.73;6.78;;;0.20;87.20;;;;;;5037432;28;20061;-59
2023/01/19 07:23:55;;;;;;;12.07;6.82;;;0.20;87.30;;;;;;5034521;28;20045;-61
2023/01/19 07:26:24;;;;;;;13.40;7.10;;;0.20;87.30;;;;;;5031408;28;20058;-60
2023/01/19 07:28:51;;;;;;;11.77;6.63;;;0.20;87.30;;;;;;5035127;28;20049;-60
2023/01/19 07:31:18;;;;;;;9.93;5.82;;;0.20;87.30;;;;;;5034682;28;20049;-59
2023/01/19 07:33:46;;;;;;;12.98;6.80;;;0.20;87.40;;;;;;5033080;28;20046;-59
2023/01/19 07:36:13;;;;;;;10.10;5.35;;;0.30;87.40;;;;;;5034788;28;20061;-71
2023/01/19 07:38:40;;;;;;;11.63;5.95;;;0.30;87.20;;;;;;5034337;28;20461;-70
2023/01/19 07:41:09;;;;;;;12.45;6.40;;;0.30;87.10;;;;;;5030767;28;20470;-63
2023/01/19 07:43:38;;;;;;;10.98;6.15;;;0.30;87.00;;;;;;5026501;28;20037;-64
2023/01/19 07:46:06;;;;;;;11.75;6.32;;;0.40;87.00;;;;;;5031887;28;20451;-64
2023/01/19 07:48:34;;;;;;;11.60;6.10;;;0.40;86.90;;;;;;5028527;28;20056;-61
2023/01/19 07:51:04;;;;;;;12.77;6.25;;;0.40;86.90;;;;;;5030082;28;20057;-70
2023/01/19 07:53:31;;;;;;;10.03;5.33;;;0.40;86.80;;;;;;5036035;28;20040;-71
2023/01/19 07:56:01;;;;;;;11.48;6.15;;;0.40;86.90;;;;;;5028951;28;20055;-71
2023/01/19 07:58:28;;;;;;;12.73;6.03;;;0.40;86.90;;;;;;5032503;28;20040;-70
2023/01/19 08:00:56;;;;;;;10.88;5.85;;;0.40;86.90;;;;;;5027822;28;20052;-71
2023/01/19 08:03:23;;;;;;;10.40;5.68;;;0.50;87.00;;;;;;5031219;28;20403;-70
2023/01/19 08:05:51;;;;;;;10.85;5.05;;;0.50;87.10;;;;;;5032805;28;20041;-61
2023/01/19 08:08:19;;;;;;;10.45;5.70;;;0.40;87.00;;;;;;5031627;28;20606;-60
2023/01/19 08:10:49;;;;;;;10.40;5.50;;;0.50;87.00;;;;;;5032345;28;20037;-60
2023/01/19 08:13:16;;;;;;;9.75;5.32;;;0.50;86.80;;;;;;5030217;28;20046;-61
2023/01/19 08:15:42;;;;;;;10.77;5.40;;;0.50;86.90;;;;;;5030284;28;20045;-61
2023/01/19 08:18:11;;;;;;;7.97;5.22;;;0.60;86.80;;;;;;5032234;28;20057;-61
2023/01/19 08:20:38;;;;;;;11.57;5.53;;;0.60;86.80;;;;;;5030111;28;20048;-61
2023/01/19 08:23:05;;;;;;;9.65;5.22;;;0.60;86.70;;;;;;5033291;28;20123;-59
2023/01/19 08:25:36;;;;;;;10.80;5.45;;;0.60;86.80;;;;;;5033689;28;20396;-59
2023/01/19 08:28:05;;;;;;;8.43;4.50;;;0.70;86.70;;;;;;5034256;28;20048;-60
2023/01/19 08:30:33;;;;;;;11.40;5.47;;;0.70;86.60;;;;;;5034578;28;20037;-60
2023/01/19 08:33:03;;;;;;;9.15;4.95;;;0.70;86.70;;;;;;5032975;28;20507;-61
2023/01/19 08:35:32;;;;;;;9.70;5.68;;;0.70;86.60;;;;;;5033762;28;20128;-60
2023/01/19 08:38:00;;;;;;;8.77;5.13;;;0.70;86.70;;;;;;5033142;28;20065;-59
2023/01/19 08:40:34;;;;;;;14.27;5.75;;;0.80;86.60;;;;;;5028165;28;20044;-60
2023/01/19 08:43:06;;;;;;;8.82;5.18;;;0.70;86.60;;;;;;5026606;28;20061;-62
2023/01/19 08:45:34;;;;;;;8.82;4.90;;;0.70;86.60;;;;;;5032635;28;20119;-61
2023/01/19 08:48:01;;;;;;;10.00;5.00;;;0.80;86.70;;;;;;5028374;28;20049;-63
2023/01/19 08:50:30;;;;;;;10.45;5.18;;;0.80;86.70;;;;;;5029399;28;20037;-60
2023/01/19 08:52:58;;;;;;;10.73;5.78;;;0.80;86.70;;;;;;5031353;28;20073;-61
2023/01/19 08:55:26;;;;;;;11.35;5.38;;;0.90;86.70;;;;;;5031843;28;20041;-61
2023/01/19 08:57:53;;;;;;;9.30;6.28;;;0.90;86.70;;;;;;5030687;28;20056;-59
2023/01/19 09:00:21;;;;;;;11.77;6.40;;;0.90;86.70;;;;;;5029931;28;20056;-60
2023/01/19 09:02:49;;;;;;;11.40;5.47;;;0.90;86.70;;;;;;5028683;28;20053;-60
2023/01/19 09:05:16;;;;;;;12.20;6.07;;;0.90;86.70;;;;;;5031527;28;20045;-61
2023/01/19 09:07:44;;;;;;;12.85;6.60;;;1.00;86.60;;;;;;5032596;28;20052;-61
2023/01/19 09:10:12;;;;;;;12.32;5.32;;;1.00;86.70;;;;;;5033758;28;20438;-61
2023/01/19 09:12:43;;;;;;;11.48;5.95;;;1.00;86.70;;;;;;5029333;28;20055;-60
2023/01/19 09:15:12;;;;;;;12.45;6.35;;;1.00;86.70;;;;;;5028083;28;20050;-61
2023/01/19 09:17:40;;;;;;;11.73;5.72;;;1.00;86.60;;;;;;5033051;28;20483;-60
2023/01/19 09:20:08;;;;;;;10.77;5.13;;;1.10;86.60;;;;;;5033250;28;20041;-60
2023/01/19 09:22:35;;;;;;;10.80;6.00;;;1.00;86.40;;;;;;5033008;28;20052;-63
2023/01/19 09:25:02;;;;;;;11.77;5.97;;;1.10;86.30;;;;;;5026766;28;20065;-65
2023/01/19 09:27:31;;;;;;;12.77;6.18;;;1.10;86.30;;;;;;5024935;28;20084;-64
2023/01/19 09:29:57;;;;;;;11.40;6.00;;;1.10;86.30;;;;;;5032691;28;20053;-63
2023/01/19 09:32:24;;;;;;;11.02;6.00;;;1.20;86.30;;;;;;5029523;28;20049;-62
2023/01/19 09:34:52;;;;;;;11.82;6.45;;;1.10;86.20;;;;;;5033866;28;20069;-61
2023/01/19 09:37:19;;;;;;;12.30;5.53;;;1.20;86.10;;;;;;5033654;28;20515;-59
2023/01/19 09:39:46;;;;;;;9.20;5.53;;;1.20;86.10;;;;;;5030796;28;20406;-61
2023/01/19 09:42:20;;;;;;;14.75;6.15;;;1.20;86.00;;;;;;5031389;28;20062;-61
2023/01/19 09:44:51;;;;;;;9.32;5.38;;;1.30;85.90;;;;;;5032408;28;20467;-60
2023/01/19 09:47:24;;;;;;;12.65;6.35;;;1.30;85.90;;;;;;5031023;28;20150;-63
2023/01/19 09:49:58;;;;;;;11.20;6.30;;;1.30;85.90;;;;;;5027930;28;20056;-63
2023/01/19 09:52:25;;;;;;;11.60;6.00;;;1.40;85.80;;;;;;5034709;28;20057;-63
2023/01/19 09:54:55;;;;;;;10.23;5.68;;;1.40;85.80;;;;;;5033258;28;20081;-65
2023/01/19 09:57:22;;;;;;;9.80;5.82;;;1.50;85.70;;;;;;5029712;28;20514;-70
2023/01/19 09:59:56;;;;;;;12.48;6.63;;;1.50;85.70;;;;;;5031686;28;20128;-70
2023/01/19 10:02:32;;;;;;;12.27;6.53;;;1.50;85.70;;;;;;5033283;28;20051;-71
2023/01/19 10:05:01;;;;;;;11.18;6.50;;;1.50;85.70;;;;;;5027459;28;20049;-70
2023/01/19 10:07:53;;;;;;;10.35;6.05;;;1.50;85.60;;;;;;5028253;28;20045;-71
2023/01/19 10:10:22;;;;;;;13.88;6.32;;;1.60;85.40;;;;;;5030552;28;20045;-71
2023/01/19 10:12:59;;;;;;;11.05;6.40;;;1.60;85.30;;;;;;5027727;28;20049;-70
2023/01/19 10:15:46;;;;;;;11.07;6.22;;;1.60;85.40;;;;;;5013299;28;20057;-70
2023/01/19 10:18:18;;;;;;;10.15;5.32;;;1.70;85.20;;;;;;5013007;28;20068;-69
2023/01/19 10:20:49;;;;;;;10.57;5.63;;;1.70;85.10;;;;;;5013550;28;20504;-71
2023/01/19 10:23:24;;;;;;;12.07;6.10;;;1.70;85.00;;;;;;5015620;28;20072;-70
2023/01/19 10:25:52;;;;;;;9.55;5.70;;;1.70;85.10;;;;;;5011284;28;20053;-70
2023/01/19 10:28:24;;;;;;;11.15;6.00;;;1.80;84.90;;;;;;5013032;28;20046;-71
2023/01/19 10:30:54;;;;;;;11.25;6.40;;;1.80;84.90;;;;;;5013779;28;20054;-70
2023/01/19 10:33:21;;;;;;;11.98;6.57;;;1.90;84.90;;;;;;5010818;28;20053;-71
2023/01/19 10:35:49;;;;;;;11.80;6.30;;;1.90;85.00;;;;;;5010003;28;20054;-70
2023/01/19 10:38:20;;;;;;;11.60;6.40;;;2.00;84.80;;;;;;5004506;28;20046;-71
2023/01/19 10:40:54;;;;;;;11.35;5.57;;;2.00;84.80;;;;;;5014916;28;20128;-70
2023/01/19 10:43:43;;;;;;;12.32;6.13;;;2.00;84.60;;;;;;5013137;28;20090;-70
2023/01/19 10:46:22;;;;;;;12.82;7.00;;;2.10;84.60;;;;;;5009259;28;20062;-69
2023/01/19 10:48:50;;;;;;;11.25;6.40;;;2.20;84.50;;;;;;5014303;28;20084;-70
2023/01/19 10:51:18;;;;;;;10.50;6.38;;;2.20;84.40;;;;;;5017627;28;20049;-69
2023/01/19 10:54:00;;;;;;;9.43;5.72;;;2.20;84.30;;;;;;5026311;28;20053;-69
2023/01/19 10:56:32;;;;;;;10.48;6.28;;;2.20;84.30;;;;;;5030959;28;20060;-59
2023/01/19 10:59:01;;;;;;;10.75;6.05;;;2.30;84.30;;;;;;5034133;28;20157;-62
2023/01/19 11:01:36;;;;;;;11.15;6.15;;;2.30;84.20;;;;;;5031349;28;20048;-61
2023/01/19 11:04:21;;;;;;;10.38;5.90;;;2.30;84.20;;;;;;5031797;28;20073;-61
2023/01/19 11:06:48;;;;;;;9.48;6.03;;;2.40;84.00;;;;;;5027725;28;20111;-60
2023/01/19 11:09:18;;;;;;;10.32;6.07;;;2.40;84.10;;;;;;5028785;28;20455;-60
2023/01/19 11:11:48;;;;;;;11.23;5.70;;;2.40;84.20;;;;;;5032374;28;20480;-61
2023/01/19 11:14:19;;;;;;;10.33;5.83;;;2.50;84.10;;;;;;5028407;28;20484;-61
2023/01/19 11:16:51;;;;;;;12.50;6.95;;;2.50;84.20;;;;;;5027821;28;20480;-61
2023/01/19 11:19:24;;;;;;;11.45;5.97;;;2.60;84.40;;;;;;5029352;28;20061;-61
2023/01/19 11:21:51;;;;;;;10.02;5.22;;;2.50;84.50;;;;;;5034437;28;20056;-61
2023/01/19 11:24:18;;;;;;;13.75;6.13;;;2.60;84.60;;;;;;5034003;28;20049;-61
2023/01/19 11:26:48;;;;;;;12.27;6.05;;;2.60;84.80;;;;;;5025916;28;20053;-61
2023/01/19 11:29:19;;;;;;;11.95;6.30;;;2.60;85.10;;;;;;5030970;28;20052;-61
2023/01/19 11:31:48;;;;;;;11.18;6.10;;;2.50;85.00;;;;;;5033678;28;20037;-61
2023/01/19 11:34:24;;;;;;;12.50;6.30;;;2.50;85.40;;;;;;5030280;28;20057;-61
2023/01/19 11:36:56;;;;;;;11.02;5.80;;;2.50;85.30;;;;;;5033660;28;20140;-61
2023/01/19 11:39:26;;;;;;;12.23;5.78;;;2.40;85.70;;;;;;5029322;28;20042;-60
2023/01/19 11:41:56;;;;;;;12.07;6.13;;;2.40;85.70;;;;;;5034762;28;20102;-61
2023/01/19 11:44:30;;;;;;;13.13;6.13;;;2.40;85.80;;;;;;5033469;28;20448;-60
2023/01/19 11:46:59;;;;;;;11.48;5.97;;;2.40;85.80;;;;;;5033050;28;20080;-62
2023/01/19 11:49:36;;;;;;;12.65;6.32;;;2.40;86.00;;;;;;5033097;28;20050;-62
2023/01/19 11:52:09;;;;;;;11.10;5.43;;;2.30;86.20;;;;;;5031509;28;20041;-62
2023/01/19 11:54:49;;;;;;;10.50;5.80;;;2.30;86.20;;;;;;5035179;28;20128;-61
2023/01/19 11:57:17;;;;;;;12.45;6.30;;;2.30;86.30;;;;;;5033610;28;20045;-61
2023/01/19 11:59:44;;;;;;;12.23;6.15;;;2.30;86.20;;;;;;5037563;28;20056;-60
2023/01/19 12:02:26;;;;;;;12.20;6.30;;;2.30;86.40;;;;;;5031395;28;20064;-61
2023/01/19 12:04:58;;;;;;;11.23;6.22;;;2.30;86.50;;;;;;5033050;28;20124;-61
2023/01/19 12:07:30;;;;;;;10.52;6.20;;;2.20;86.50;;;;;;5033008;28;21083;-60
2023/01/19 12:10:06;;;;;;;9.77;5.30;;;2.30;86.70;;;;;;5035203;28;20518;-60
2023/01/19 12:12:38;;;;;;;10.82;5.90;;;2.30;86.60;;;;;;5031680;28;20124;-60
2023/01/19 12:15:17;;;;;;;11.35;5.78;;;2.30;86.60;;;;;;5034034;28;20414;-62
2023/01/19 12:17:48;;;;;;;9.68;5.50;;;2.30;86.90;;;;;;5032886;28;20058;-60
2023/01/19 12:20:25;;;;;;;10.48;5.82;;;2.30;86.80;;;;;;5030116;28;20080;-60
2023/01/19 12:23:01;;;;;;;9.98;5.28;;;2.20;86.80;;;;;;5033255;28;20041;-61
2023/01/19 12:25:37;;;;;;;12.05;6.22;;;2.20;86.80;;;;;;5024476;28;20051;-59
2023/01/19 12:28:09;;;;;;;11.38;6.13;;;2.20;87.10;;;;;;5036293;28;20041;-60
2023/01/19 12:30:36;;;;;;;10.00;5.60;;;2.20;86.80;;;;;;5034008;28;20927;-61
2023/01/19 12:33:34;;;;;;;8.35;5.20;;;2.20;86.80;;;;;;5029475;28;20546;-61
2023/01/19 12:36:04;;;;;;;9.00;4.90;;;2.20;87.10;;;;;;5035051;28;20056;-61
2023/01/19 12:38:47;;;;;;;11.73;5.82;;;2.30;86.80;;;;;;5035837;28;20487;-61
2023/01/19 12:41:22;;;;;;;9.73;5.43;;;2.20;86.80;;;;;;5030765;28;20053;-61
2023/01/19 12:44:20;;;;;;;9.90;5.70;;;2.20;86.90;;;;;;5034166;28;20133;-62
2023/01/19 12:46:50;;;;;;;8.75;4.93;;;2.20;86.90;;;;;;5029435;28;20080;-60